Time;durP1;ratioP1;P1;durP2;ratioP2;P2;SDS_P1;SDS_P2;PMS_P1;PMS_P2;Temp;Humidity;BMP_temperature;BMP_pressure;BME280_temperature;BME280_humidity;BME280_pressure;Samples;Min_cycle;Max_cycle;Signal;HPM_P1;HPM_P2
2021/10/31 00:00:04;;;;;;;9.80;5.45;;;26.10;99.90;;;;;;1910449;72;21224;-79
2021/10/31 00:02:43;;;;;;;10.78;5.65;;;26.20;99.90;;;;;;1927563;72;21254;-78
2021/10/31 00:05:15;;;;;;;11.15;5.83;;;26.20;99.90;;;;;;1937514;72;21139;-78
2021/10/31 00:07:46;;;;;;;12.75;5.75;;;26.20;99.90;;;;;;1925647;73;21272;-78
2021/10/31 00:10:20;;;;;;;10.75;5.50;;;26.20;99.90;;;;;;1938225;73;21705;-79
2021/10/31 00:12:50;;;;;;;14.03;5.87;;;26.20;99.90;;;;;;1923152;72;21134;-78
2021/10/31 00:15:21;;;;;;;8.60;5.17;;;26.30;99.90;;;;;;1927016;73;21119;-77
2021/10/31 00:17:52;;;;;;;9.35;5.55;;;26.30;99.90;;;;;;1897965;73;21560;-79
2021/10/31 00:20:23;;;;;;;14.83;6.15;;;26.30;99.90;;;;;;1834714;77;21655;-80
2021/10/31 00:22:53;;;;;;;7.75;5.50;;;26.40;99.90;;;;;;1852709;76;21172;-80
2021/10/31 00:25:24;;;;;;;9.05;5.17;;;26.40;99.70;;;;;;1825292;76;21115;-80
2021/10/31 00:27:55;;;;;;;7.17;4.50;;;26.50;99.60;;;;;;1825748;77;21096;-79
2021/10/31 00:30:26;;;;;;;7.85;4.60;;;26.40;99.20;;;;;;1837171;77;21683;-80
2021/10/31 00:32:57;;;;;;;6.40;4.33;;;26.50;99.20;;;;;;1846357;76;21098;-78
2021/10/31 00:35:28;;;;;;;8.18;4.25;;;26.50;99.20;;;;;;1837911;77;21215;-79
2021/10/31 00:37:59;;;;;;;8.20;4.15;;;26.50;99.10;;;;;;1830911;76;21150;-78
2021/10/31 00:40:31;;;;;;;8.38;4.92;;;26.60;99.00;;;;;;1827262;77;21158;-78
2021/10/31 00:43:02;;;;;;;9.43;4.92;;;26.60;99.00;;;;;;1831776;77;21265;-78
2021/10/31 00:45:32;;;;;;;10.95;4.55;;;26.70;98.90;;;;;;1826706;77;21132;-78
2021/10/31 00:48:03;;;;;;;5.55;3.90;;;26.70;98.70;;;;;;1848106;76;21088;-78
2021/10/31 00:50:34;;;;;;;6.12;4.42;;;26.70;98.30;;;;;;1812554;77;21176;-77
2021/10/31 00:53:07;;;;;;;6.80;4.28;;;26.80;98.40;;;;;;1824462;77;21151;-78
2021/10/31 00:55:40;;;;;;;6.12;4.30;;;26.80;98.20;;;;;;1850292;76;21147;-78
2021/10/31 00:58:12;;;;;;;8.23;4.33;;;26.80;98.20;;;;;;1848132;76;21812;-78
2021/10/31 01:00:44;;;;;;;9.55;4.28;;;26.80;98.20;;;;;;1845046;76;21647;-78
2021/10/31 01:03:15;;;;;;;6.60;4.00;;;26.90;97.80;;;;;;1853863;76;21191;-79
2021/10/31 01:05:48;;;;;;;7.30;3.85;;;26.90;97.60;;;;;;1829079;77;21090;-78
2021/10/31 01:08:21;;;;;;;6.30;3.67;;;26.90;97.60;;;;;;1829141;77;21567;-78
2021/10/31 01:10:54;;;;;;;7.78;3.92;;;26.90;97.60;;;;;;1880296;74;21170;-78
2021/10/31 01:13:27;;;;;;;5.83;3.95;;;27.00;97.50;;;;;;1881039;74;21202;-79
2021/10/31 01:16:01;;;;;;;7.30;3.90;;;27.00;97.40;;;;;;1847933;75;21234;-78
2021/10/31 01:18:37;;;;;;;6.30;3.87;;;27.00;97.30;;;;;;1846663;75;21641;-78
2021/10/31 01:21:14;;;;;;;8.08;4.33;;;27.10;97.30;;;;;;1913313;73;21413;-80
2021/10/31 01:23:47;;;;;;;7.65;4.50;;;27.10;97.20;;;;;;1915853;73;21592;-79
2021/10/31 01:26:34;;;;;;;6.97;5.03;;;27.10;97.40;;;;;;1875564;75;21220;-78
2021/10/31 01:29:07;;;;;;;6.12;4.20;;;27.10;97.40;;;;;;1913377;73;21195;-78
2021/10/31 01:31:39;;;;;;;9.30;4.42;;;27.10;97.50;;;;;;1911750;74;21140;-78
2021/10/31 01:34:15;;;;;;;6.03;3.70;;;27.20;97.50;;;;;;1923986;73;21311;-78
2021/10/31 01:36:48;;;;;;;4.65;2.70;;;27.20;97.20;;;;;;1908624;73;21178;-79
2021/10/31 01:39:21;;;;;;;4.53;2.60;;;27.20;96.70;;;;;;1906381;74;21084;-78
2021/10/31 01:41:54;;;;;;;5.40;2.85;;;27.30;96.60;;;;;;1912973;73;21132;-79
2021/10/31 01:44:27;;;;;;;3.87;2.98;;;27.20;96.80;;;;;;1903387;73;21118;-79
2021/10/31 01:47:00;;;;;;;5.30;3.20;;;27.30;96.70;;;;;;1909302;73;21072;-79
2021/10/31 01:49:32;;;;;;;5.60;3.52;;;27.30;96.70;;;;;;1874493;75;21083;-77
2021/10/31 01:52:06;;;;;;;4.40;2.42;;;27.30;96.50;;;;;;1926500;73;21663;-79
2021/10/31 01:54:39;;;;;;;6.53;2.87;;;27.30;96.10;;;;;;1944682;73;21048;-79
2021/10/31 01:57:12;;;;;;;4.97;2.75;;;27.30;96.30;;;;;;1922487;73;21131;-79
2021/10/31 01:59:45;;;;;;;5.15;2.72;;;27.40;96.30;;;;;;1911972;74;21136;-79
2021/10/31 02:02:18;;;;;;;4.05;2.42;;;27.40;96.20;;;;;;1910960;74;21202;-79
2021/10/31 02:04:51;;;;;;;6.83;2.70;;;27.40;96.10;;;;;;1917949;73;21136;-79
2021/10/31 02:07:22;;;;;;;5.80;3.05;;;27.40;95.90;;;;;;1916494;73;21116;-78
2021/10/31 02:09:54;;;;;;;4.17;2.83;;;27.50;95.90;;;;;;1913860;74;21139;-80
2021/10/31 02:12:26;;;;;;;5.03;2.85;;;27.60;95.70;;;;;;1902366;74;21114;-79
2021/10/31 02:15:17;;;;;;;3.65;2.40;;;27.70;95.70;;;;;;1911250;74;21179;-79
2021/10/31 02:17:51;;;;;;;5.78;3.02;;;27.70;95.70;;;;;;1898285;75;21159;-80
2021/10/31 02:20:24;;;;;;;5.10;2.95;;;27.90;95.70;;;;;;1912416;74;21491;-78
2021/10/31 02:22:57;;;;;;;5.40;2.62;;;27.90;95.70;;;;;;1910357;73;21810;-79
2021/10/31 02:25:29;;;;;;;5.90;2.47;;;28.00;95.50;;;;;;1896083;73;21217;-79
2021/10/31 02:28:00;;;;;;;4.87;2.55;;;28.00;95.10;;;;;;1906613;70;21185;-79
2021/10/31 02:30:31;;;;;;;4.42;3.02;;;28.10;95.10;;;;;;1897578;73;21666;-77
2021/10/31 02:33:02;;;;;;;3.87;2.45;;;28.10;94.90;;;;;;1907897;73;21075;-79
2021/10/31 02:35:33;;;;;;;5.10;2.37;;;28.10;95.00;;;;;;1899957;73;21846;-78
2021/10/31 02:38:04;;;;;;;3.90;2.30;;;28.20;95.00;;;;;;1906643;73;21231;-78
2021/10/31 02:40:36;;;;;;;2.83;2.35;;;28.20;95.10;;;;;;1903633;73;21075;-79
2021/10/31 02:43:07;;;;;;;3.50;2.17;;;28.30;94.80;;;;;;1897398;75;21116;-80
2021/10/31 02:45:38;;;;;;;3.00;2.00;;;28.40;94.70;;;;;;1912958;72;21589;-81
2021/10/31 02:48:11;;;;;;;3.02;2.30;;;28.40;94.70;;;;;;1900325;74;21656;-80
2021/10/31 02:50:44;;;;;;;4.20;2.60;;;28.40;94.90;;;;;;1897340;74;21188;-79
2021/10/31 02:53:17;;;;;;;4.35;2.72;;;28.50;94.90;;;;;;1898521;73;21116;-80
2021/10/31 02:55:48;;;;;;;4.42;2.98;;;28.60;94.70;;;;;;1906658;73;21233;-80
2021/10/31 02:58:22;;;;;;;7.50;2.33;;;28.70;94.60;;;;;;1846078;77;21120;-80
2021/10/31 03:00:55;;;;;;;4.03;2.12;;;28.70;94.70;;;;;;1908905;72;21637;-80
2021/10/31 03:03:28;;;;;;;4.65;2.17;;;28.80;94.60;;;;;;1905780;74;21259;-80
2021/10/31 03:06:01;;;;;;;3.85;2.37;;;28.80;94.30;;;;;;1890387;74;21147;-80
2021/10/31 03:08:33;;;;;;;5.97;2.85;;;28.90;94.30;;;;;;1908510;74;21156;-80
2021/10/31 03:11:07;;;;;;;4.28;2.65;;;29.00;94.10;;;;;;1894202;74;21708;-81
2021/10/31 03:13:39;;;;;;;3.22;1.82;;;29.10;93.90;;;;;;1895000;75;21146;-81
2021/10/31 03:16:10;;;;;;;4.00;2.30;;;29.10;93.70;;;;;;1905836;74;21234;-82
2021/10/31 03:18:43;;;;;;;3.10;2.05;;;29.30;93.70;;;;;;1878428;75;21148;-81
2021/10/31 03:21:17;;;;;;;2.70;1.70;;;29.40;93.60;;;;;;1879074;75;21148;-81
2021/10/31 03:23:47;;;;;;;3.17;1.65;;;29.40;93.30;;;;;;1885192;75;21198;-81
2021/10/31 03:26:18;;;;;;;3.87;1.70;;;29.40;93.30;;;;;;1885069;74;21205;-80
2021/10/31 03:28:49;;;;;;;5.50;1.77;;;29.50;93.10;;;;;;1876153;75;21111;-81
2021/10/31 03:31:20;;;;;;;2.25;1.47;;;29.50;93.00;;;;;;1897240;74;21745;-81
2021/10/31 03:33:51;;;;;;;3.67;1.60;;;29.60;92.70;;;;;;1878828;75;21509;-81
2021/10/31 03:36:22;;;;;;;5.12;2.00;;;29.80;92.50;;;;;;1895750;74;21666;-80
2021/10/31 03:38:53;;;;;;;3.58;1.90;;;30.00;92.00;;;;;;1896431;74;21732;-82
2021/10/31 03:41:24;;;;;;;3.72;2.00;;;30.20;91.80;;;;;;1877812;74;21166;-82
2021/10/31 03:43:55;;;;;;;2.65;1.82;;;30.30;91.70;;;;;;1896185;74;21620;-81
2021/10/31 03:46:25;;;;;;;3.65;1.60;;;30.40;91.60;;;;;;1889566;74;21279;-82
2021/10/31 03:48:56;;;;;;;2.62;1.87;;;30.40;91.70;;;;;;1869520;75;21214;-81
2021/10/31 03:51:27;;;;;;;2.90;1.77;;;30.50;91.70;;;;;;1887179;74;21128;-82
2021/10/31 03:53:58;;;;;;;3.12;1.65;;;30.60;91.40;;;;;;1878580;75;21572;-81
2021/10/31 03:56:29;;;;;;;3.00;1.42;;;30.70;91.40;;;;;;1869858;75;21120;-81
2021/10/31 03:59:00;;;;;;;3.25;2.20;;;30.80;91.00;;;;;;1875869;74;21132;-81
2021/10/31 04:01:32;;;;;;;2.85;1.80;;;30.90;90.60;;;;;;1899113;74;21478;-80
2021/10/31 04:04:04;;;;;;;2.05;1.50;;;31.00;90.40;;;;;;1887968;74;21088;-81
2021/10/31 04:06:34;;;;;;;2.33;1.62;;;31.10;89.90;;;;;;1909755;74;21067;-79
2021/10/31 04:09:05;;;;;;;2.42;1.50;;;31.20;90.10;;;;;;1902944;74;21738;-79
2021/10/31 04:12:34;;;;;;;;;;;;;;;;;;;;;
2021/10/31 04:15:00;;;;;;;9.80;2.72;;;31.10;89.50;;;;;;1865100;75;21111;-80
2021/10/31 04:17:58;;;;;;;;;;;;;;;;;;;;;
2021/10/31 04:23:28;;;;;;;2.83;1.80;;;31.40;88.60;;;;;;1713223;83;22118;-81
2021/10/31 04:25:59;;;;;;;4.75;1.67;;;31.20;89.70;;;;;;1662119;85;21254;-82
2021/10/31 04:28:30;;;;;;;2.75;1.50;;;31.20;89.70;;;;;;1696992;83;21344;-81
2021/10/31 04:31:01;;;;;;;2.50;1.65;;;31.10;90.10;;;;;;1698592;83;21259;-81
2021/10/31 04:33:34;;;;;;;2.45;1.50;;;31.10;90.00;;;;;;1681059;83;21186;-82
2021/10/31 04:36:07;;;;;;;2.10;1.30;;;31.10;89.70;;;;;;1694948;83;21366;-82
2021/10/31 04:38:37;;;;;;;2.45;1.40;;;31.20;88.60;;;;;;1674159;83;21840;-82
2021/10/31 04:41:09;;;;;;;3.10;1.50;;;31.30;87.70;;;;;;1686729;83;21270;-81
2021/10/31 04:43:40;;;;;;;2.27;1.40;;;31.40;88.10;;;;;;1689793;83;21299;-82
2021/10/31 04:46:10;;;;;;;2.20;1.42;;;31.50;87.40;;;;;;1692503;82;21316;-81
2021/10/31 04:48:41;;;;;;;3.37;1.22;;;31.70;86.70;;;;;;1707177;82;21235;-81
2021/10/31 04:51:12;;;;;;;2.40;1.60;;;31.80;87.20;;;;;;1693171;81;21655;-81
2021/10/31 04:53:43;;;;;;;2.27;1.55;;;31.70;87.40;;;;;;1734734;81;21322;-81
2021/10/31 04:56:15;;;;;;;2.22;1.40;;;31.50;87.70;;;;;;1707345;81;21748;-82
2021/10/31 04:58:46;;;;;;;2.08;1.40;;;31.40;88.10;;;;;;1755721;79;21710;-83
2021/10/31 05:01:17;;;;;;;4.00;1.70;;;31.40;88.90;;;;;;1827548;77;21672;-82
2021/10/31 05:03:48;;;;;;;2.62;1.40;;;31.40;87.10;;;;;;1826088;77;21313;-82
2021/10/31 05:06:20;;;;;;;1.87;1.17;;;31.30;87.80;;;;;;1832297;76;21654;-81
2021/10/31 05:08:51;;;;;;;4.58;2.12;;;31.20;88.60;;;;;;1829806;76;21219;-81
2021/10/31 05:11:21;;;;;;;4.58;1.95;;;31.00;89.00;;;;;;1826788;77;21171;-81
2021/10/31 05:13:52;;;;;;;3.50;1.40;;;30.90;88.80;;;;;;1795788;78;21247;-83
2021/10/31 05:16:23;;;;;;;2.52;1.32;;;31.00;89.60;;;;;;1893026;74;21075;-80
2021/10/31 05:18:55;;;;;;;2.37;1.30;;;31.10;88.40;;;;;;1881189;75;21291;-79
2021/10/31 05:21:26;;;;;;;2.65;1.47;;;31.20;88.60;;;;;;1892035;73;21625;-81
2021/10/31 05:23:57;;;;;;;2.17;1.65;;;31.40;87.80;;;;;;1892082;73;21126;-81
2021/10/31 05:26:28;;;;;;;2.83;1.10;;;31.50;86.80;;;;;;1898865;75;21078;-80
2021/10/31 05:28:59;;;;;;;2.67;1.35;;;31.50;86.60;;;;;;1903086;75;21705;-81
2021/10/31 05:31:30;;;;;;;2.60;1.60;;;31.50;86.40;;;;;;1913005;74;21966;-81
2021/10/31 05:34:01;;;;;;;3.92;1.35;;;31.40;86.50;;;;;;1893974;74;21589;-83
2021/10/31 05:36:34;;;;;;;2.05;1.20;;;31.30;87.20;;;;;;1905385;73;21200;-81
2021/10/31 05:39:05;;;;;;;1.75;1.20;;;31.30;86.90;;;;;;1899550;75;21539;-80
2021/10/31 05:41:36;;;;;;;4.17;1.30;;;31.40;86.20;;;;;;1907272;75;21132;-81
2021/10/31 05:44:06;;;;;;;2.67;1.47;;;31.60;85.90;;;;;;1902852;75;21211;-81
2021/10/31 05:46:37;;;;;;;2.62;1.70;;;31.80;85.80;;;;;;1896935;74;21562;-81
2021/10/31 05:49:11;;;;;;;2.80;1.62;;;31.90;85.10;;;;;;1902054;74;21235;-80
2021/10/31 05:51:44;;;;;;;2.20;1.55;;;;;;;;;;1914041;74;21174;-80
2021/10/31 05:54:16;;;;;;;3.83;1.60;;;32.10;84.60;;;;;;1855389;74;21187;-82
2021/10/31 05:56:46;;;;;;;1.87;1.30;;;32.20;85.10;;;;;;1859802;76;21213;-82
2021/10/31 05:59:17;;;;;;;2.75;1.30;;;32.30;84.60;;;;;;1919678;74;21074;-83
2021/10/31 06:01:48;;;;;;;4.22;1.40;;;32.30;84.70;;;;;;1910781;73;21177;-81
2021/10/31 06:04:28;;;;;;;2.35;1.15;;;32.30;84.70;;;;;;1901849;75;21149;-80
2021/10/31 06:07:04;;;;;;;4.50;1.70;;;32.30;83.80;;;;;;1819568;73;21197;-81
2021/10/31 06:09:42;;;;;;;2.58;1.87;;;32.20;86.10;;;;;;1872965;76;21211;-81
2021/10/31 06:12:13;;;;;;;4.70;1.70;;;32.10;86.00;;;;;;1874715;74;21167;-81
2021/10/31 06:14:44;;;;;;;3.65;1.75;;;31.90;85.70;;;;;;1872196;74;21229;-82
2021/10/31 06:17:15;;;;;;;2.33;1.40;;;31.80;86.00;;;;;;1875654;74;21179;-79
2021/10/31 06:19:46;;;;;;;3.62;1.50;;;31.90;85.90;;;;;;1875478;76;21080;-80
2021/10/31 06:22:17;;;;;;;1.82;1.32;;;31.90;86.20;;;;;;1870739;75;21136;-80
2021/10/31 06:24:48;;;;;;;2.67;1.47;;;32.10;84.10;;;;;;1866229;76;21254;-80
2021/10/31 06:27:18;;;;;;;2.98;1.40;;;32.10;83.90;;;;;;1864830;75;21256;-80
2021/10/31 06:29:50;;;;;;;2.37;1.42;;;32.10;83.90;;;;;;1866244;77;21614;-81
2021/10/31 06:32:21;;;;;;;3.17;1.70;;;32.00;84.90;;;;;;1860089;77;21127;-81
2021/10/31 06:34:51;;;;;;;3.52;1.40;;;31.90;84.60;;;;;;1861506;77;21685;-81
2021/10/31 06:37:22;;;;;;;2.58;1.42;;;31.90;86.80;;;;;;1865451;75;21159;-82
2021/10/31 06:39:53;;;;;;;3.83;1.40;;;31.90;86.00;;;;;;1869338;75;21229;-81
2021/10/31 06:42:26;;;;;;;2.87;1.17;;;32.00;86.00;;;;;;1867454;75;21228;-81
2021/10/31 06:44:57;;;;;;;3.35;1.45;;;32.00;85.70;;;;;;1869307;74;21131;-81
2021/10/31 06:47:28;;;;;;;2.72;1.22;;;32.00;86.00;;;;;;1879735;74;21143;-81
2021/10/31 06:50:00;;;;;;;1.92;1.22;;;32.00;86.90;;;;;;1894395;74;21081;-81
2021/10/31 06:52:31;;;;;;;2.42;1.45;;;32.00;86.00;;;;;;1888941;74;21088;-80
2021/10/31 06:55:02;;;;;;;3.00;1.60;;;32.10;85.10;;;;;;1895984;74;21063;-81
2021/10/31 06:57:32;;;;;;;2.47;1.50;;;32.10;85.60;;;;;;1877168;76;21147;-81
2021/10/31 07:00:04;;;;;;;2.40;1.25;;;32.20;84.90;;;;;;1873442;76;21158;-80
2021/10/31 07:02:35;;;;;;;2.83;1.25;;;32.30;85.00;;;;;;1869382;75;21181;-80
2021/10/31 07:05:08;;;;;;;3.45;1.70;;;32.40;83.70;;;;;;1881765;74;21077;-80
2021/10/31 07:07:38;;;;;;;1.72;1.15;;;32.40;84.40;;;;;;1899665;74;21194;-81
2021/10/31 07:10:10;;;;;;;2.55;1.10;;;32.30;83.90;;;;;;1900792;74;21624;-81
2021/10/31 07:12:41;;;;;;;1.57;1.00;;;32.40;84.10;;;;;;1910135;73;21165;-81
2021/10/31 07:15:12;;;;;;;4.08;1.70;;;32.30;84.00;;;;;;1893419;74;21612;-81
2021/10/31 07:17:45;;;;;;;2.98;1.15;;;32.30;84.40;;;;;;1909833;74;21138;-82
2021/10/31 07:20:16;;;;;;;3.00;1.47;;;32.20;84.30;;;;;;1896447;74;21045;-82
2021/10/31 07:22:47;;;;;;;2.60;1.42;;;32.20;83.30;;;;;;1898761;73;21244;-81
2021/10/31 07:25:19;;;;;;;3.12;1.50;;;32.30;84.10;;;;;;1899607;74;21187;-81
2021/10/31 07:27:51;;;;;;;1.90;1.25;;;32.20;84.00;;;;;;1889855;74;21143;-81
2021/10/31 07:30:23;;;;;;;4.47;1.30;;;32.20;84.70;;;;;;1905349;73;21146;-80
2021/10/31 07:32:59;;;;;;;4.35;1.27;;;32.10;84.60;;;;;;1912338;73;21147;-81
2021/10/31 07:35:31;;;;;;;2.80;1.37;;;32.00;84.60;;;;;;1924989;73;21115;-80
2021/10/31 07:38:03;;;;;;;2.58;1.02;;;31.80;84.50;;;;;;1841220;76;21688;-81
2021/10/31 07:40:39;;;;;;;3.92;2.40;;;31.70;84.50;;;;;;1902786;73;21527;-80
2021/10/31 07:43:12;;;;;;;2.92;1.30;;;31.60;84.90;;;;;;1902494;73;21246;-79
2021/10/31 07:45:43;;;;;;;2.47;1.62;;;31.60;85.00;;;;;;1903644;73;21598;-80
2021/10/31 07:48:15;;;;;;;3.45;1.35;;;31.60;85.70;;;;;;1894348;73;21193;-80
2021/10/31 07:50:46;;;;;;;3.55;1.70;;;31.60;86.20;;;;;;1906967;73;21102;-79
2021/10/31 07:53:17;;;;;;;3.27;1.67;;;31.70;85.80;;;;;;1918624;74;21849;-80
2021/10/31 07:55:52;;;;;;;4.40;1.40;;;31.70;86.10;;;;;;1911322;75;21144;-79
2021/10/31 07:58:24;;;;;;;3.00;1.50;;;31.70;85.90;;;;;;1907470;74;21642;-82
2021/10/31 08:00:54;;;;;;;2.95;1.35;;;31.70;85.70;;;;;;1897648;74;21157;-82
2021/10/31 08:03:25;;;;;;;2.05;1.07;;;31.70;85.70;;;;;;1898062;75;21087;-81
2021/10/31 08:05:55;;;;;;;2.67;1.32;;;31.70;85.70;;;;;;1890178;73;21176;-81
2021/10/31 08:08:29;;;;;;;2.25;1.10;;;31.60;85.20;;;;;;1902901;73;21039;-82
2021/10/31 08:11:01;;;;;;;2.25;1.42;;;31.70;85.70;;;;;;1917832;72;21118;-82
2021/10/31 08:13:32;;;;;;;2.10;1.12;;;31.60;85.50;;;;;;1907061;73;21261;-82
2021/10/31 08:16:05;;;;;;;2.75;1.15;;;31.50;85.10;;;;;;1905663;73;21597;-82
2021/10/31 08:18:36;;;;;;;2.87;1.17;;;31.50;84.90;;;;;;1898248;75;21115;-80
2021/10/31 08:21:07;;;;;;;2.00;1.22;;;31.40;84.90;;;;;;1910212;74;21085;-80
2021/10/31 08:23:39;;;;;;;2.85;1.32;;;31.50;85.70;;;;;;1895237;73;21767;-79
2021/10/31 08:26:10;;;;;;;2.45;1.60;;;31.50;86.20;;;;;;1916573;73;21126;-80
2021/10/31 08:28:41;;;;;;;3.67;1.62;;;31.50;86.40;;;;;;1909706;73;21662;-82
2021/10/31 08:31:12;;;;;;;2.35;1.40;;;31.50;86.70;;;;;;1900814;73;21225;-80
2021/10/31 08:33:44;;;;;;;3.37;1.32;;;31.60;85.90;;;;;;1900732;73;21651;-82
2021/10/31 08:36:15;;;;;;;3.62;1.22;;;31.60;85.30;;;;;;1912703;73;21535;-83
2021/10/31 08:38:46;;;;;;;3.47;2.33;;;31.60;85.20;;;;;;1902688;73;21620;-80
2021/10/31 08:41:19;;;;;;;4.28;1.70;;;31.60;84.00;;;;;;1918279;73;21263;-81
2021/10/31 08:43:52;;;;;;;3.67;1.37;;;31.50;85.20;;;;;;1924694;74;21553;-81
2021/10/31 08:46:23;;;;;;;2.45;1.32;;;31.50;85.40;;;;;;1903056;73;21120;-82
2021/10/31 08:48:55;;;;;;;3.52;1.45;;;31.50;85.60;;;;;;1914144;72;21228;-81
2021/10/31 08:51:27;;;;;;;2.47;1.37;;;31.30;86.40;;;;;;1932821;73;21246;-81
2021/10/31 08:53:59;;;;;;;3.52;1.55;;;31.30;87.40;;;;;;1927144;73;21128;-81
2021/10/31 08:56:31;;;;;;;5.90;2.02;;;31.20;87.70;;;;;;1911324;74;21135;-81
2021/10/31 08:59:04;;;;;;;2.85;1.57;;;31.20;88.10;;;;;;1901240;74;21232;-81
2021/10/31 09:01:35;;;;;;;3.95;1.50;;;31.20;88.30;;;;;;1911298;73;21193;-82
2021/10/31 09:04:06;;;;;;;2.85;1.70;;;31.20;88.50;;;;;;1906237;74;21666;-80
2021/10/31 09:06:37;;;;;;;4.35;2.02;;;31.20;88.40;;;;;;1916029;74;21611;-81
2021/10/31 09:09:08;;;;;;;5.20;2.12;;;31.20;88.60;;;;;;1902423;74;21091;-81
2021/10/31 09:11:39;;;;;;;2.62;1.45;;;31.20;88.60;;;;;;1913228;73;21074;-82
2021/10/31 09:14:10;;;;;;;3.75;1.90;;;31.20;88.30;;;;;;1912953;73;21143;-83
2021/10/31 09:16:42;;;;;;;2.65;1.42;;;31.20;88.30;;;;;;1918638;73;21211;-83
2021/10/31 09:19:14;;;;;;;4.70;2.12;;;31.20;88.10;;;;;;1895172;75;21142;-81
2021/10/31 09:21:46;;;;;;;4.10;2.10;;;31.20;88.40;;;;;;1893027;73;21212;-81
2021/10/31 09:24:17;;;;;;;2.77;1.80;;;31.20;88.20;;;;;;1913858;74;21165;-80
2021/10/31 09:26:49;;;;;;;5.33;2.00;;;31.20;88.40;;;;;;1915275;74;21071;-81
2021/10/31 09:29:20;;;;;;;3.83;1.50;;;31.20;88.40;;;;;;1904420;74;21142;-81
2021/10/31 09:31:52;;;;;;;10.23;2.20;;;31.10;88.30;;;;;;1904601;74;21169;-81
2021/10/31 09:34:27;;;;;;;3.70;2.00;;;31.10;88.50;;;;;;1892429;74;21184;-81
2021/10/31 09:36:58;;;;;;;4.58;2.12;;;31.10;88.70;;;;;;1898122;74;21609;-81
2021/10/31 09:39:29;;;;;;;4.03;1.90;;;31.00;88.90;;;;;;1889045;74;21130;-81
2021/10/31 09:42:00;;;;;;;2.90;1.98;;;31.00;89.00;;;;;;1854670;76;21524;-81
2021/10/31 09:44:39;;;;;;;2.55;1.72;;;31.00;89.10;;;;;;1919885;74;21137;-83
2021/10/31 09:47:05;;;;;;;3.58;2.00;;;30.90;89.30;;;;;;1912993;72;21168;-83
2021/10/31 09:49:37;;;;;;;6.70;2.22;;;30.90;89.40;;;;;;1910860;72;21139;-83
2021/10/31 09:52:09;;;;;;;4.45;1.98;;;30.90;89.40;;;;;;1945898;71;21356;-81
2021/10/31 09:54:41;;;;;;;5.85;1.60;;;30.80;89.60;;;;;;1930922;71;21518;-81
2021/10/31 09:57:13;;;;;;;3.20;1.57;;;30.80;89.80;;;;;;1938602;73;21141;-84
2021/10/31 09:59:51;;;;;;;4.22;2.00;;;30.70;89.80;;;;;;1912718;73;21174;-82
2021/10/31 10:02:37;;;;;;;2.83;1.80;;;30.70;90.00;;;;;;1844582;76;21433;-82
2021/10/31 10:04:53;;;;;;;4.15;1.80;;;30.70;90.00;;;;;;1904670;74;21172;-80
2021/10/31 10:07:26;;;;;;;4.45;1.90;;;30.60;90.10;;;;;;1911585;73;21158;-81
2021/10/31 10:09:57;;;;;;;4.00;2.30;;;30.60;90.10;;;;;;1898191;73;21188;-80
2021/10/31 10:12:29;;;;;;;15.98;2.12;;;30.50;90.20;;;;;;1849988;75;21134;-83
2021/10/31 10:15:03;;;;;;;3.40;1.82;;;30.50;90.20;;;;;;1856639;76;21128;-80
2021/10/31 10:17:36;;;;;;;3.75;1.60;;;30.50;90.20;;;;;;1914514;73;21112;-81
2021/10/31 10:20:09;;;;;;;3.22;1.62;;;30.50;90.40;;;;;;1896411;74;21153;-82
2021/10/31 10:22:41;;;;;;;6.42;1.87;;;30.40;90.20;;;;;;1901948;73;21161;-82
2021/10/31 10:25:13;;;;;;;3.98;1.90;;;30.40;90.30;;;;;;1890148;74;21301;-82
2021/10/31 10:27:47;;;;;;;5.35;1.85;;;30.40;90.40;;;;;;1888698;74;21244;-82
2021/10/31 10:30:20;;;;;;;3.25;1.80;;;30.40;90.50;;;;;;1889800;73;21461;-81
2021/10/31 10:32:54;;;;;;;3.95;1.77;;;30.40;90.40;;;;;;1891740;74;21138;-81
2021/10/31 10:35:28;;;;;;;3.65;2.00;;;30.30;90.40;;;;;;1903174;74;21659;-81
2021/10/31 10:38:07;;;;;;;5.17;1.90;;;30.30;90.40;;;;;;1889005;74;21637;-83
2021/10/31 10:40:39;;;;;;;3.25;2.17;;;30.30;90.40;;;;;;1901974;73;21141;-81
2021/10/31 10:43:10;;;;;;;3.45;1.70;;;30.20;90.40;;;;;;1894325;73;21110;-82
2021/10/31 10:45:42;;;;;;;4.80;1.72;;;30.20;90.40;;;;;;1894220;74;21238;-81
2021/10/31 10:48:16;;;;;;;4.53;1.82;;;30.20;90.70;;;;;;1887222;74;21126;-81
2021/10/31 10:50:47;;;;;;;4.10;2.00;;;30.20;90.60;;;;;;1889937;74;21139;-82
2021/10/31 10:53:20;;;;;;;4.30;2.15;;;30.20;90.80;;;;;;1860215;76;21217;-81
2021/10/31 10:55:51;;;;;;;5.50;2.75;;;30.10;90.70;;;;;;1833810;76;21889;-81
2021/10/31 10:58:23;;;;;;;6.22;3.10;;;30.10;90.90;;;;;;1844267;77;21701;-81
2021/10/31 11:00:54;;;;;;;5.25;3.12;;;30.10;91.00;;;;;;1873147;75;21114;-80
2021/10/31 11:03:28;;;;;;;5.75;2.90;;;30.10;91.10;;;;;;1856450;75;21131;-81
2021/10/31 11:06:03;;;;;;;5.90;3.20;;;30.10;91.20;;;;;;1877726;75;21165;-81
2021/10/31 11:08:35;;;;;;;6.08;3.45;;;30.00;91.30;;;;;;1906415;73;21284;-81
2021/10/31 11:11:12;;;;;;;5.15;3.42;;;30.10;91.50;;;;;;1891381;73;21536;-81
2021/10/31 11:13:43;;;;;;;6.53;3.50;;;30.00;91.40;;;;;;1902556;73;21062;-80
2021/10/31 11:16:15;;;;;;;6.55;3.30;;;30.00;91.50;;;;;;1909618;73;21632;-81
2021/10/31 11:18:47;;;;;;;6.15;3.72;;;30.00;91.50;;;;;;1909299;72;21140;-80
2021/10/31 11:21:18;;;;;;;6.22;3.37;;;30.00;91.50;;;;;;1914872;73;21131;-81
2021/10/31 11:23:53;;;;;;;9.93;3.80;;;30.00;91.50;;;;;;1908818;73;21183;-80
2021/10/31 11:26:27;;;;;;;6.10;4.00;;;29.90;91.50;;;;;;1931628;73;22218;-80
2021/10/31 11:28:59;;;;;;;6.40;3.77;;;29.90;91.50;;;;;;1914524;73;21074;-80
2021/10/31 11:31:50;;;;;;;6.65;3.62;;;29.90;91.50;;;;;;1894281;74;21071;-79
2021/10/31 11:34:21;;;;;;;7.58;3.62;;;29.90;91.60;;;;;;1796566;78;21530;-80
2021/10/31 11:36:53;;;;;;;7.12;3.65;;;29.80;91.70;;;;;;1781132;78;21096;-80
2021/10/31 11:39:25;;;;;;;5.78;3.27;;;29.80;91.70;;;;;;1837069;78;21690;-80
2021/10/31 11:41:58;;;;;;;6.28;3.20;;;29.80;91.70;;;;;;1827523;77;21773;-79
2021/10/31 11:44:31;;;;;;;5.55;3.15;;;29.80;91.60;;;;;;1813956;78;21198;-80
2021/10/31 11:47:03;;;;;;;5.78;2.98;;;29.80;91.50;;;;;;1828937;77;21269;-80
2021/10/31 11:49:37;;;;;;;7.42;3.37;;;29.80;91.50;;;;;;1812398;78;21606;-80
2021/10/31 11:52:09;;;;;;;4.75;2.90;;;29.80;91.50;;;;;;1824701;77;21169;-79
2021/10/31 11:54:40;;;;;;;6.75;3.40;;;29.80;91.60;;;;;;1832181;77;21597;-78
2021/10/31 11:57:13;;;;;;;4.90;2.70;;;29.80;91.60;;;;;;1834070;77;21122;-81
2021/10/31 11:59:47;;;;;;;4.85;2.92;;;29.80;91.60;;;;;;1795280;79;21726;-80
2021/10/31 12:02:22;;;;;;;5.28;2.92;;;29.80;91.60;;;;;;1817783;77;21147;-80
2021/10/31 12:05:15;;;;;;;5.75;3.00;;;29.80;91.80;;;;;;1827251;77;21478;-80
2021/10/31 12:07:30;;;;;;;10.90;3.22;;;29.80;91.90;;;;;;1838235;76;21174;-81
2021/10/31 12:10:01;;;;;;;7.58;3.12;;;29.70;92.00;;;;;;1834707;77;21178;-81
2021/10/31 12:12:34;;;;;;;5.90;2.87;;;29.70;91.90;;;;;;1844097;77;21181;-81
2021/10/31 12:15:06;;;;;;;4.42;2.77;;;29.70;91.70;;;;;;1837680;77;21057;-81
2021/10/31 12:17:39;;;;;;;5.15;3.00;;;29.70;92.00;;;;;;1787757;79;21180;-81
2021/10/31 12:20:10;;;;;;;7.80;3.00;;;29.70;92.00;;;;;;1826133;77;21896;-81
2021/10/31 12:22:42;;;;;;;5.40;3.25;;;29.70;92.10;;;;;;1833803;77;21223;-81
2021/10/31 12:25:13;;;;;;;5.47;3.15;;;29.70;92.80;;;;;;1824301;77;21128;-80
2021/10/31 12:27:47;;;;;;;5.35;3.25;;;29.70;92.70;;;;;;1824492;77;21194;-81
2021/10/31 12:30:33;;;;;;;5.40;3.12;;;29.60;92.70;;;;;;1831806;77;21217;-81
2021/10/31 12:32:56;;;;;;;6.75;3.52;;;29.60;92.60;;;;;;1798439;77;21231;-82
2021/10/31 12:35:31;;;;;;;9.23;3.47;;;29.60;92.50;;;;;;1829441;77;21166;-81
2021/10/31 12:38:04;;;;;;;5.00;3.00;;;29.50;92.70;;;;;;1833855;76;21605;-81
2021/10/31 12:40:40;;;;;;;6.15;3.25;;;29.50;92.80;;;;;;1822814;77;22156;-79
2021/10/31 12:43:12;;;;;;;5.90;3.12;;;29.50;92.90;;;;;;1785589;78;21115;-80
2021/10/31 12:45:48;;;;;;;6.62;3.40;;;29.50;93.00;;;;;;1825258;77;21198;-81
2021/10/31 12:48:21;;;;;;;7.37;3.22;;;29.50;93.30;;;;;;1816773;77;21223;-81
2021/10/31 12:50:55;;;;;;;4.72;3.10;;;29.50;93.50;;;;;;1812661;78;21140;-81
2021/10/31 12:53:30;;;;;;;6.53;2.98;;;29.40;93.20;;;;;;1818542;77;21119;-80
2021/10/31 12:56:03;;;;;;;6.67;2.87;;;29.40;92.80;;;;;;1847777;77;21185;-81
2021/10/31 12:58:34;;;;;;;9.18;3.37;;;29.50;92.70;;;;;;1839212;77;21645;-81
2021/10/31 13:01:05;;;;;;;7.97;3.10;;;29.50;93.20;;;;;;1838096;77;21159;-80
2021/10/31 13:03:37;;;;;;;4.47;2.85;;;29.50;92.80;;;;;;1821300;77;21136;-81
2021/10/31 13:06:08;;;;;;;4.75;2.70;;;29.50;92.60;;;;;;1839224;76;21205;-79
2021/10/31 13:08:45;;;;;;;6.50;3.00;;;29.50;92.60;;;;;;1840228;77;21697;-80
2021/10/31 13:11:14;;;;;;;4.70;3.17;;;29.50;92.50;;;;;;1821897;76;21271;-80
2021/10/31 13:13:46;;;;;;;11.00;6.35;;;29.50;92.30;;;;;;1830147;76;21619;-80
2021/10/31 13:16:17;;;;;;;12.68;6.50;;;29.50;93.20;;;;;;1778928;79;21155;-81